Time;durP1;ratioP1;P1;durP2;ratioP2;P2;SDS_P1;SDS_P2;PMS_P1;PMS_P2;Temp;Humidity;BMP_temperature;BMP_pressure;BME280_temperature;BME280_humidity;BME280_pressure;Samples;Min_cycle;Max_cycle;Signal;HPM_P1;HPM_P2
2021/06/19 00:00:37;;;;;;;1.50;0.90;;;25.50;83.80;;;;;;5118880;28;20527;-84
2021/06/19 00:03:05;;;;;;;1.50;0.90;;;25.40;84.50;;;;;;5122590;27;20466;-83
2021/06/19 00:05:34;;;;;;;1.47;0.90;;;25.40;84.60;;;;;;5123899;28;20849;-83
2021/06/19 00:08:02;;;;;;;1.50;0.90;;;25.30;84.90;;;;;;5112749;27;20507;-85
2021/06/19 00:10:29;;;;;;;1.50;0.90;;;25.30;84.20;;;;;;5124355;28;20475;-85
2021/06/19 00:12:56;;;;;;;1.47;0.90;;;25.20;84.70;;;;;;5118018;27;20550;-82
2021/06/19 00:15:24;;;;;;;1.50;0.90;;;25.20;83.50;;;;;;5124437;28;20523;-84
2021/06/19 00:17:51;;;;;;;1.50;0.87;;;25.20;84.00;;;;;;5101233;28;20484;-84
2021/06/19 00:20:22;;;;;;;1.50;0.90;;;25.10;84.40;;;;;;5122383;28;20479;-83
2021/06/19 00:22:52;;;;;;;1.50;0.93;;;25.10;84.30;;;;;;5110384;27;20982;-84
2021/06/19 00:25:20;;;;;;;1.50;1.00;;;25.10;84.70;;;;;;5122063;28;20505;-84
2021/06/19 00:27:47;;;;;;;1.47;0.90;;;25.00;84.90;;;;;;5128938;27;20514;-83
2021/06/19 00:30:16;;;;;;;1.50;0.90;;;25.00;84.70;;;;;;5122715;28;20498;-83
2021/06/19 00:32:44;;;;;;;1.50;0.90;;;25.00;84.30;;;;;;5127547;27;20934;-84
2021/06/19 00:35:12;;;;;;;1.50;0.90;;;24.90;84.40;;;;;;5102402;28;20457;-84
2021/06/19 00:37:39;;;;;;;1.50;0.90;;;24.90;84.40;;;;;;5121677;27;20521;-84
2021/06/19 00:40:10;;;;;;;1.50;0.90;;;24.80;84.20;;;;;;5123335;27;20495;-84
2021/06/19 00:42:38;;;;;;;1.43;0.90;;;24.80;84.20;;;;;;5109625;27;20490;-84
2021/06/19 00:45:06;;;;;;;1.47;0.90;;;24.80;84.40;;;;;;5123292;28;20560;-84
2021/06/19 00:47:37;;;;;;;1.50;0.90;;;24.80;83.80;;;;;;5109994;28;20479;-83
2021/06/19 00:50:04;;;;;;;1.43;0.90;;;24.80;84.40;;;;;;5121850;28;21052;-86
2021/06/19 00:52:31;;;;;;;1.47;0.90;;;24.70;84.30;;;;;;5125172;27;20474;-85
2021/06/19 00:54:58;;;;;;;1.50;0.90;;;24.70;84.10;;;;;;5123471;28;20460;-82
2021/06/19 00:57:26;;;;;;;1.50;0.90;;;24.60;84.40;;;;;;5124800;27;20470;-83
2021/06/19 00:59:57;;;;;;;1.50;0.90;;;24.60;84.10;;;;;;5123672;28;20616;-84
2021/06/19 01:02:23;;;;;;;1.50;0.90;;;24.50;84.00;;;;;;5111600;28;20482;-84
2021/06/19 01:04:50;;;;;;;1.40;0.90;;;24.50;84.70;;;;;;5122397;28;20819;-85
2021/06/19 01:07:17;;;;;;;1.47;0.90;;;24.50;84.30;;;;;;5118155;28;20479;-83
2021/06/19 01:09:44;;;;;;;1.47;0.90;;;24.40;84.60;;;;;;5114466;28;20495;-84
2021/06/19 01:12:11;;;;;;;1.50;0.90;;;24.40;84.50;;;;;;5110922;28;20509;-83
2021/06/19 01:14:39;;;;;;;1.47;0.90;;;24.30;84.60;;;;;;5121344;28;20456;-84
2021/06/19 01:17:06;;;;;;;1.47;0.90;;;24.30;84.00;;;;;;5101969;28;20627;-84
2021/06/19 01:19:33;;;;;;;1.50;0.90;;;24.30;84.60;;;;;;5117230;28;20494;-83
2021/06/19 01:22:00;;;;;;;1.50;0.90;;;24.20;84.10;;;;;;5114709;28;20498;-84
2021/06/19 01:24:27;;;;;;;1.43;0.90;;;24.20;85.10;;;;;;5124541;28;20493;-85
2021/06/19 01:26:55;;;;;;;1.50;0.90;;;24.20;85.20;;;;;;5113065;28;20881;-84
2021/06/19 01:29:21;;;;;;;1.50;0.90;;;24.10;84.60;;;;;;5124488;28;20487;-81
2021/06/19 01:31:48;;;;;;;1.47;0.90;;;24.10;86.20;;;;;;5121394;27;20511;-85
2021/06/19 01:34:15;;;;;;;1.47;0.90;;;24.00;85.20;;;;;;5132319;27;20546;-84
2021/06/19 01:36:42;;;;;;;1.50;0.90;;;24.00;84.80;;;;;;5115823;27;20475;-85
2021/06/19 01:39:09;;;;;;;1.47;0.90;;;23.90;84.70;;;;;;5126156;27;20588;-84
2021/06/19 01:41:36;;;;;;;1.47;0.90;;;23.90;85.30;;;;;;5115869;27;20593;-84
2021/06/19 01:44:07;;;;;;;1.47;0.90;;;23.90;85.70;;;;;;5123621;28;20448;-85
2021/06/19 01:46:36;;;;;;;1.70;1.20;;;23.90;85.90;;;;;;5116487;27;20482;-83
2021/06/19 01:49:03;;;;;;;1.50;0.90;;;23.80;85.80;;;;;;5126539;27;20497;-84
2021/06/19 01:51:31;;;;;;;1.40;0.90;;;23.80;85.90;;;;;;5112345;28;21186;-85
2021/06/19 01:53:58;;;;;;;1.50;0.90;;;23.80;86.30;;;;;;5121507;28;20489;-83
2021/06/19 01:56:25;;;;;;;1.50;0.90;;;23.70;85.80;;;;;;5118152;27;20471;-84
2021/06/19 01:58:53;;;;;;;1.50;0.90;;;23.70;85.60;;;;;;5133981;27;20487;-84
2021/06/19 02:01:21;;;;;;;1.50;1.00;;;23.70;86.10;;;;;;5116860;27;20569;-82
2021/06/19 02:03:49;;;;;;;1.50;0.90;;;23.60;86.00;;;;;;5134741;27;20456;-83
2021/06/19 02:06:16;;;;;;;1.43;0.90;;;23.60;85.70;;;;;;5111833;28;20475;-84
2021/06/19 02:08:53;;;;;;;1.50;0.90;;;23.60;86.30;;;;;;5131393;27;20471;-85
2021/06/19 02:11:20;;;;;;;1.50;1.00;;;23.50;85.90;;;;;;5113177;28;20509;-82
2021/06/19 02:13:47;;;;;;;1.50;0.90;;;23.50;86.10;;;;;;5123036;28;20474;-80
2021/06/19 02:16:13;;;;;;;1.50;0.93;;;23.40;85.80;;;;;;5112672;28;20475;-83
2021/06/19 02:18:42;;;;;;;1.50;0.90;;;23.40;86.20;;;;;;5120942;28;20482;-84
2021/06/19 02:21:09;;;;;;;1.47;0.90;;;23.40;86.10;;;;;;5114839;27;21084;-83
2021/06/19 02:23:35;;;;;;;1.50;1.00;;;23.40;86.90;;;;;;5135135;27;20490;-84
2021/06/19 02:26:02;;;;;;;1.50;1.00;;;23.30;86.40;;;;;;5110551;28;20483;-82
2021/06/19 02:28:29;;;;;;;1.47;0.90;;;23.30;86.90;;;;;;5126871;27;20498;-84
2021/06/19 02:30:58;;;;;;;1.50;0.90;;;23.30;86.90;;;;;;5111070;28;20540;-80
2021/06/19 02:33:25;;;;;;;1.50;0.90;;;23.30;87.20;;;;;;5120658;27;20934;-84
2021/06/19 02:35:54;;;;;;;1.50;0.93;;;23.20;86.80;;;;;;5112486;27;20462;-80
2021/06/19 02:38:22;;;;;;;1.50;0.90;;;23.20;86.60;;;;;;5137208;27;20448;-82
2021/06/19 02:40:50;;;;;;;1.50;0.90;;;23.20;87.30;;;;;;5112993;27;20452;-81
2021/06/19 02:43:18;;;;;;;1.50;0.90;;;23.20;86.90;;;;;;5138078;27;20491;-81
2021/06/19 02:45:45;;;;;;;1.50;1.00;;;23.20;87.60;;;;;;5123638;28;20987;-81
2021/06/19 02:48:12;;;;;;;1.50;0.90;;;23.10;86.70;;;;;;5111271;28;20507;-83
2021/06/19 02:50:41;;;;;;;1.50;0.97;;;23.10;87.10;;;;;;5123076;28;20490;-82
2021/06/19 02:53:11;;;;;;;1.50;0.90;;;23.10;87.60;;;;;;5127926;27;20510;-82
2021/06/19 02:55:40;;;;;;;1.47;0.90;;;23.00;87.00;;;;;;5121808;28;20484;-83
2021/06/19 02:58:08;;;;;;;1.50;0.90;;;23.00;87.20;;;;;;5110488;28;20475;-80
2021/06/19 03:00:35;;;;;;;1.50;1.00;;;23.00;87.50;;;;;;5123892;28;20511;-81
2021/06/19 03:03:02;;;;;;;1.50;1.00;;;22.90;87.30;;;;;;5126350;27;20479;-82
2021/06/19 03:05:31;;;;;;;1.50;0.90;;;22.90;87.50;;;;;;5122304;28;20459;-83
2021/06/19 03:08:00;;;;;;;1.50;0.90;;;22.90;87.60;;;;;;5111088;28;20511;-83
2021/06/19 03:10:30;;;;;;;1.47;0.90;;;22.90;87.50;;;;;;5120658;28;21064;-82
2021/06/19 03:12:57;;;;;;;1.50;0.90;;;22.90;87.40;;;;;;5111437;27;20483;-81
2021/06/19 03:15:25;;;;;;;1.50;0.90;;;22.80;87.70;;;;;;5123369;28;20456;-82
2021/06/19 03:17:52;;;;;;;1.50;1.00;;;22.80;87.80;;;;;;5122425;27;20522;-82
2021/06/19 03:20:20;;;;;;;1.47;0.90;;;22.80;87.80;;;;;;5121902;28;20509;-81
2021/06/19 03:22:49;;;;;;;1.47;0.90;;;22.80;88.00;;;;;;5117532;27;20609;-83
2021/06/19 03:25:18;;;;;;;1.50;0.90;;;22.70;88.00;;;;;;5124452;28;20471;-83
2021/06/19 03:27:47;;;;;;;1.50;0.90;;;22.70;88.20;;;;;;5129006;27;20481;-82
2021/06/19 03:30:16;;;;;;;1.47;0.90;;;22.70;87.80;;;;;;5124296;28;20533;-81
2021/06/19 03:32:43;;;;;;;1.50;0.90;;;22.70;88.60;;;;;;5112217;28;20543;-83
2021/06/19 03:35:11;;;;;;;1.50;0.90;;;22.60;88.00;;;;;;5123344;28;20616;-83
2021/06/19 03:37:39;;;;;;;1.50;0.90;;;22.60;88.30;;;;;;5107254;28;20480;-79
2021/06/19 03:40:08;;;;;;;1.50;0.90;;;22.60;88.80;;;;;;5111387;28;20472;-79
2021/06/19 03:42:35;;;;;;;1.50;1.00;;;22.50;88.90;;;;;;5097975;28;20486;-81
2021/06/19 03:45:04;;;;;;;1.50;0.90;;;22.50;88.60;;;;;;5119520;28;20473;-80
2021/06/19 03:47:31;;;;;;;1.50;1.00;;;22.50;88.60;;;;;;5125685;27;20467;-84
2021/06/19 03:49:58;;;;;;;1.50;0.90;;;22.40;88.90;;;;;;5124150;27;20571;-81
2021/06/19 03:52:25;;;;;;;1.50;0.93;;;22.40;88.90;;;;;;5121170;27;20479;-82
2021/06/19 03:54:52;;;;;;;1.50;0.90;;;22.40;89.30;;;;;;5124395;27;20459;-81
2021/06/19 03:57:23;;;;;;;1.50;1.00;;;22.40;89.20;;;;;;5121555;27;20475;-82
2021/06/19 03:59:51;;;;;;;1.50;1.00;;;22.40;89.10;;;;;;5122033;27;20486;-80
2021/06/19 04:02:19;;;;;;;1.50;0.90;;;22.40;89.70;;;;;;5121665;27;20486;-83
2021/06/19 04:04:46;;;;;;;1.47;0.90;;;22.30;89.60;;;;;;5119313;28;20747;-83
2021/06/19 04:07:13;;;;;;;1.50;0.90;;;22.30;89.80;;;;;;5117994;27;20478;-83
2021/06/19 04:09:40;;;;;;;1.50;0.90;;;22.30;89.80;;;;;;5122274;28;20484;-81
2021/06/19 04:12:09;;;;;;;1.50;0.90;;;22.30;89.70;;;;;;5117656;27;20547;-82
2021/06/19 04:14:42;;;;;;;1.50;0.90;;;22.30;90.00;;;;;;5120142;27;20528;-80
2021/06/19 04:17:10;;;;;;;1.50;0.90;;;22.30;90.10;;;;;;5115392;27;20470;-80
2021/06/19 04:19:39;;;;;;;1.47;0.90;;;22.30;89.90;;;;;;5126486;27;20495;-82
2021/06/19 04:22:07;;;;;;;1.50;0.97;;;22.30;90.40;;;;;;5124856;27;20506;-81
2021/06/19 04:24:34;;;;;;;1.60;1.30;;;22.20;90.40;;;;;;5130168;27;20456;-80
2021/06/19 04:27:02;;;;;;;1.47;0.90;;;22.20;90.40;;;;;;5113570;28;20521;-80
2021/06/19 04:29:30;;;;;;;1.50;0.90;;;22.20;90.40;;;;;;5125536;28;20632;-82
2021/06/19 04:31:58;;;;;;;1.50;0.90;;;22.30;90.40;;;;;;5125054;27;20471;-82
2021/06/19 04:34:25;;;;;;;1.50;1.00;;;22.30;90.60;;;;;;5133075;27;20448;-81
2021/06/19 04:36:54;;;;;;;1.47;0.90;;;22.30;90.40;;;;;;5113970;27;20542;-81
2021/06/19 04:39:21;;;;;;;1.47;0.90;;;22.40;90.60;;;;;;5121326;28;20829;-82
2021/06/19 04:41:53;;;;;;;1.50;0.90;;;22.50;90.40;;;;;;5119110;27;20498;-82
2021/06/19 04:44:40;;;;;;;1.50;0.90;;;22.60;90.60;;;;;;5128194;27;20498;-80
2021/06/19 04:47:07;;;;;;;1.47;0.90;;;22.80;90.30;;;;;;5112851;28;20486;-81
2021/06/19 04:49:34;;;;;;;1.50;0.90;;;23.00;90.00;;;;;;5123630;28;20475;-82
2021/06/19 04:52:02;;;;;;;1.50;0.90;;;23.30;89.80;;;;;;5122513;27;20538;-82
2021/06/19 04:54:36;;;;;;;1.50;0.90;;;23.60;88.90;;;;;;5124449;28;20954;-82
2021/06/19 04:57:08;;;;;;;1.50;0.90;;;23.80;88.80;;;;;;5111992;28;20483;-82
2021/06/19 05:02:39;;;;;;;1.50;1.10;;;24.30;86.60;;;;;;5114315;28;20498;-81
2021/06/19 05:05:20;;;;;;;;;;;;;;;;;;;;;
2021/06/19 05:08:08;;;;;;;1.50;0.90;;;24.80;85.40;;;;;;5135466;27;20486;-82
2021/06/19 05:10:52;;;;;;;1.50;1.00;;;25.10;84.80;;;;;;5126590;28;20444;-81
2021/06/19 05:13:19;;;;;;;1.50;0.90;;;25.40;83.90;;;;;;5116218;28;20496;-82
2021/06/19 05:15:58;;;;;;;1.50;1.00;;;25.60;83.10;;;;;;5128940;28;20465;-82
2021/06/19 05:18:25;;;;;;;1.47;0.90;;;25.80;82.80;;;;;;5128483;28;20470;-81
2021/06/19 05:21:10;;;;;;;1.50;0.90;;;25.90;82.40;;;;;;5118943;27;20524;-81
2021/06/19 05:23:58;;;;;;;1.47;0.90;;;26.10;82.00;;;;;;5144279;28;20514;-81
2021/06/19 05:26:39;;;;;;;1.50;0.90;;;26.30;81.60;;;;;;5118199;28;20467;-83
2021/06/19 05:29:07;;;;;;;1.50;0.90;;;26.40;81.10;;;;;;5183234;22;20516;-80
2021/06/19 05:31:34;;;;;;;1.50;1.00;;;26.60;80.10;;;;;;5059488;28;20477;-81
2021/06/19 05:34:04;;;;;;;1.50;0.90;;;26.70;80.00;;;;;;5072523;28;20482;-80
2021/06/19 05:36:47;;;;;;;1.50;0.90;;;26.80;79.40;;;;;;5062780;28;20481;-81
2021/06/19 05:39:21;;;;;;;1.50;0.90;;;26.90;79.10;;;;;;5082764;28;20476;-83
2021/06/19 05:41:51;;;;;;;1.50;0.90;;;26.90;79.10;;;;;;5055817;28;20474;-81
2021/06/19 05:47:21;;;;;;;1.50;0.90;;;27.00;78.80;;;;;;5054805;28;20473;-81
2021/06/19 05:49:54;;;;;;;1.50;0.90;;;26.90;79.50;;;;;;5080861;28;20720;-81
2021/06/19 05:52:22;;;;;;;1.50;0.90;;;27.00;79.20;;;;;;5051013;28;21026;-82
2021/06/19 05:54:51;;;;;;;1.50;0.90;;;27.00;78.70;;;;;;5058223;28;20562;-82
2021/06/19 05:57:17;;;;;;;1.50;0.80;;;27.00;79.00;;;;;;5048120;28;21022;-81
2021/06/19 05:59:44;;;;;;;1.50;0.90;;;26.90;78.90;;;;;;5059060;28;20548;-80
2021/06/19 06:02:11;;;;;;;1.47;0.80;;;27.00;78.90;;;;;;5051158;28;20545;-82
2021/06/19 06:04:38;;;;;;;1.50;0.90;;;27.10;78.70;;;;;;5064555;28;20552;-79
2021/06/19 06:07:05;;;;;;;1.47;0.80;;;27.20;79.00;;;;;;5049113;28;20735;-81
2021/06/19 06:09:32;;;;;;;1.50;0.90;;;27.20;78.50;;;;;;5059922;28;21003;-81
2021/06/19 06:12:01;;;;;;;1.50;0.90;;;27.30;78.60;;;;;;5052042;28;20496;-82
2021/06/19 06:14:30;;;;;;;1.47;0.90;;;27.40;77.60;;;;;;5061805;28;20489;-82
2021/06/19 06:16:57;;;;;;;1.47;0.90;;;27.30;77.60;;;;;;5054057;28;20730;-82
2021/06/19 06:19:24;;;;;;;1.50;0.80;;;27.50;77.30;;;;;;5066387;28;20508;-79
2021/06/19 06:21:51;;;;;;;1.50;0.80;;;27.60;77.40;;;;;;5047866;28;20517;-78
2021/06/19 06:24:18;;;;;;;1.50;0.90;;;27.60;77.10;;;;;;5061648;28;20972;-79
2021/06/19 06:26:45;;;;;;;1.50;0.80;;;27.70;76.90;;;;;;5043884;28;20488;-80
2021/06/19 06:29:14;;;;;;;1.47;0.80;;;27.90;76.30;;;;;;5048845;28;20936;-80
2021/06/19 06:31:41;;;;;;;1.50;0.90;;;28.00;76.20;;;;;;5041591;28;20538;-79
2021/06/19 06:34:08;;;;;;;1.50;0.90;;;28.00;75.70;;;;;;5055326;28;20493;-80
2021/06/19 06:36:35;;;;;;;1.50;1.00;;;28.10;76.20;;;;;;5046383;28;21136;-84
2021/06/19 06:39:04;;;;;;;1.50;0.80;;;28.30;75.50;;;;;;5062853;28;20494;-79
2021/06/19 06:41:31;;;;;;;1.47;0.80;;;28.30;75.20;;;;;;5049285;28;20486;-81
2021/06/19 06:43:58;;;;;;;1.50;0.90;;;28.30;75.50;;;;;;5065005;28;20465;-80
2021/06/19 06:46:27;;;;;;;1.50;0.90;;;28.40;75.20;;;;;;5043661;28;20478;-80
2021/06/19 06:48:54;;;;;;;1.50;0.90;;;28.60;75.00;;;;;;5057291;28;20481;-80
2021/06/19 06:51:21;;;;;;;1.47;0.80;;;28.80;74.40;;;;;;5046041;28;20504;-81
2021/06/19 06:53:53;;;;;;;1.43;0.80;;;28.90;74.30;;;;;;5066022;28;20946;-78
2021/06/19 06:56:20;;;;;;;1.50;0.90;;;28.90;74.10;;;;;;5048726;28;20480;-81
2021/06/19 06:58:47;;;;;;;1.50;0.90;;;29.00;74.20;;;;;;5059407;28;20568;-82
2021/06/19 07:01:14;;;;;;;1.50;0.90;;;29.20;74.00;;;;;;5048045;28;20499;-80
2021/06/19 07:03:42;;;;;;;1.43;0.90;;;29.30;73.30;;;;;;5062828;28;20466;-78
2021/06/19 07:06:13;;;;;;;1.50;0.80;;;29.30;72.70;;;;;;5047535;28;20507;-81
2021/06/19 07:08:40;;;;;;;1.50;0.90;;;29.40;72.70;;;;;;5064522;28;20493;-80
2021/06/19 07:11:07;;;;;;;1.47;0.80;;;29.50;72.70;;;;;;5045245;28;20491;-80
2021/06/19 07:13:34;;;;;;;1.47;0.80;;;29.70;72.00;;;;;;5051219;28;20869;-80
2021/06/19 07:16:02;;;;;;;1.47;0.80;;;29.80;71.20;;;;;;5049618;28;20528;-80
2021/06/19 07:18:31;;;;;;;1.50;0.80;;;30.00;71.50;;;;;;5063355;28;20477;-80
2021/06/19 07:21:03;;;;;;;1.43;0.80;;;30.00;71.40;;;;;;5053783;28;20491;-79
2021/06/19 07:23:30;;;;;;;1.43;0.80;;;30.20;71.00;;;;;;5034977;28;20458;-80
2021/06/19 07:25:59;;;;;;;1.50;1.00;;;30.20;71.10;;;;;;5044557;28;20469;-81
2021/06/19 07:28:26;;;;;;;1.43;0.80;;;30.20;70.70;;;;;;5050441;28;20508;-81
2021/06/19 07:30:53;;;;;;;1.43;0.80;;;30.20;69.90;;;;;;5041223;28;20482;-79
2021/06/19 07:33:20;;;;;;;1.43;0.80;;;30.40;70.60;;;;;;5045620;28;20485;-80
2021/06/19 07:35:51;;;;;;;1.47;0.90;;;30.40;70.30;;;;;;5053571;28;20495;-81
2021/06/19 07:38:19;;;;;;;1.47;0.80;;;30.40;70.60;;;;;;5055670;28;20886;-81
2021/06/19 07:40:47;;;;;;;1.50;0.90;;;30.60;70.40;;;;;;5055914;28;20465;-82
2021/06/19 07:43:14;;;;;;;1.47;0.80;;;30.70;69.80;;;;;;5062832;28;20493;-80
2021/06/19 07:45:40;;;;;;;1.43;0.90;;;30.80;69.90;;;;;;5057419;28;21070;-80
2021/06/19 07:48:07;;;;;;;1.43;0.80;;;30.90;69.00;;;;;;5045388;28;21146;-82
2021/06/19 07:50:37;;;;;;;1.43;0.80;;;31.10;68.20;;;;;;5058820;28;20491;-81
2021/06/19 07:53:04;;;;;;;1.43;0.80;;;31.20;67.90;;;;;;5044822;28;20473;-81
2021/06/19 07:55:37;;;;;;;1.47;0.80;;;31.20;68.60;;;;;;5053232;28;20807;-80
2021/06/19 07:58:06;;;;;;;1.47;0.80;;;31.40;68.20;;;;;;5048679;28;20478;-79
2021/06/19 08:00:33;;;;;;;1.47;0.83;;;31.30;67.90;;;;;;5057372;28;20465;-80
2021/06/19 08:03:03;;;;;;;1.50;0.80;;;31.40;68.60;;;;;;5046210;28;20497;-79
2021/06/19 08:05:30;;;;;;;1.40;0.80;;;31.40;68.00;;;;;;5057369;28;20454;-81
2021/06/19 08:07:57;;;;;;;1.47;0.80;;;31.50;68.00;;;;;;5050115;28;20496;-79
2021/06/19 08:10:25;;;;;;;1.47;0.90;;;31.60;68.10;;;;;;5051410;28;20493;-80
2021/06/19 08:12:54;;;;;;;1.40;0.80;;;31.70;68.00;;;;;;5040097;28;20481;-79
2021/06/19 08:15:29;;;;;;;1.40;0.90;;;31.80;66.70;;;;;;5050583;28;20966;-79
2021/06/19 08:17:55;;;;;;;1.50;1.03;;;31.80;67.30;;;;;;5022251;28;20580;-81
2021/06/19 08:20:22;;;;;;;1.47;0.80;;;31.90;67.30;;;;;;5056894;28;20535;-81
2021/06/19 08:22:49;;;;;;;1.47;0.90;;;31.90;66.70;;;;;;5045039;28;20612;-81
2021/06/19 08:25:17;;;;;;;1.43;0.80;;;31.80;67.30;;;;;;5063421;28;20462;-81
2021/06/19 08:27:44;;;;;;;1.43;0.80;;;31.70;67.50;;;;;;5043775;28;20485;-81
2021/06/19 08:30:14;;;;;;;1.47;0.80;;;31.70;68.20;;;;;;5055570;28;20489;-82
2021/06/19 08:32:41;;;;;;;1.43;0.80;;;31.70;67.80;;;;;;5037306;28;20509;-79
2021/06/19 08:35:09;;;;;;;1.40;0.80;;;31.80;68.20;;;;;;5048979;28;20469;-80
2021/06/19 08:37:37;;;;;;;1.47;0.80;;;31.90;67.70;;;;;;5037793;28;20621;-81
2021/06/19 08:40:06;;;;;;;1.47;0.80;;;32.00;67.60;;;;;;5065006;28;20635;-80
2021/06/19 08:42:33;;;;;;;1.43;0.90;;;32.10;66.40;;;;;;5043772;28;20310;-79
2021/06/19 08:45:00;;;;;;;1.43;0.80;;;32.10;67.00;;;;;;5062061;28;20200;-81
2021/06/19 08:47:34;;;;;;;1.43;0.80;;;32.10;66.80;;;;;;5040915;28;20227;-80
2021/06/19 08:50:03;;;;;;;1.43;0.80;;;32.10;66.10;;;;;;5059807;28;20223;-81
2021/06/19 08:52:30;;;;;;;1.47;0.80;;;32.10;66.50;;;;;;5043331;28;20235;-81
2021/06/19 08:55:01;;;;;;;1.50;0.80;;;32.10;66.50;;;;;;5059295;28;20503;-80
2021/06/19 08:57:28;;;;;;;1.43;0.80;;;32.30;67.20;;;;;;5041755;28;20238;-78
2021/06/19 08:59:55;;;;;;;1.50;0.90;;;32.40;66.40;;;;;;5054311;28;20230;-82
2021/06/19 09:02:24;;;;;;;1.43;0.80;;;32.50;65.80;;;;;;5041411;28;20415;-81
2021/06/19 09:04:58;;;;;;;1.50;1.20;;;32.70;65.50;;;;;;5050256;28;20219;-82
2021/06/19 09:07:40;;;;;;;2.13;1.67;;;32.80;64.70;;;;;;5040110;28;20235;-81
2021/06/19 09:10:25;;;;;;;1.47;0.80;;;32.70;66.20;;;;;;5044464;28;20230;-81
2021/06/19 09:13:11;;;;;;;1.47;0.80;;;32.80;65.80;;;;;;5033452;28;20816;-79
2021/06/19 09:15:44;;;;;;;1.43;0.80;;;33.00;65.80;;;;;;5046938;28;20279;-81
2021/06/19 09:18:19;;;;;;;1.43;0.80;;;33.00;65.00;;;;;;5043819;28;20238;-81
2021/06/19 09:20:52;;;;;;;1.40;0.80;;;33.10;65.30;;;;;;5046160;28;20930;-80
2021/06/19 09:23:29;;;;;;;1.40;0.80;;;33.20;65.70;;;;;;5056540;28;20242;-82
2021/06/19 09:26:09;;;;;;;1.47;0.80;;;33.20;65.50;;;;;;5034927;28;20199;-83
2021/06/19 09:28:59;;;;;;;1.40;0.80;;;33.20;65.10;;;;;;5047793;28;20227;-81
2021/06/19 09:31:41;;;;;;;1.45;0.80;;;33.20;64.40;;;;;;5034314;28;20227;-82
2021/06/19 09:34:12;;;;;;;1.45;0.80;;;33.30;64.50;;;;;;5042249;28;20294;-82
2021/06/19 09:36:43;;;;;;;1.48;0.80;;;33.30;64.80;;;;;;5039999;28;20231;-81
2021/06/19 09:39:15;;;;;;;1.48;0.80;;;33.40;65.40;;;;;;5053114;28;20662;-82
2021/06/19 09:41:46;;;;;;;1.60;1.00;;;33.40;64.10;;;;;;5042665;28;20477;-82
2021/06/19 09:44:14;;;;;;;1.48;0.80;;;33.50;64.90;;;;;;5055024;28;20238;-80
2021/06/19 09:46:42;;;;;;;1.40;0.80;;;33.60;64.20;;;;;;5039222;28;20267;-81
2021/06/19 09:49:19;;;;;;;1.45;0.80;;;33.70;64.10;;;;;;5047700;28;20235;-81
2021/06/19 09:51:49;;;;;;;1.45;0.80;;;33.70;63.90;;;;;;5040210;28;20238;-79
2021/06/19 09:54:21;;;;;;;1.45;0.80;;;33.60;62.70;;;;;;5050960;28;20208;-83
2021/06/19 09:56:51;;;;;;;1.48;0.80;;;33.60;64.30;;;;;;5047906;28;20261;-82
2021/06/19 09:59:30;;;;;;;1.40;0.80;;;33.60;63.40;;;;;;5062214;28;20250;-82
2021/06/19 10:01:58;;;;;;;1.45;0.80;;;33.80;64.20;;;;;;5050969;28;20309;-82
2021/06/19 10:04:26;;;;;;;1.40;0.80;;;33.90;63.10;;;;;;5054387;28;20227;-82
2021/06/19 10:06:55;;;;;;;1.45;0.80;;;34.00;63.50;;;;;;5045795;28;20227;-81
2021/06/19 10:09:25;;;;;;;1.42;0.80;;;34.10;62.30;;;;;;5055641;28;20222;-81
2021/06/19 10:11:53;;;;;;;1.48;0.80;;;34.30;62.10;;;;;;5040459;28;20262;-79
2021/06/19 10:14:24;;;;;;;1.40;0.80;;;34.40;62.10;;;;;;5059826;28;20623;-80
2021/06/19 10:16:55;;;;;;;1.40;0.90;;;34.30;61.80;;;;;;5040544;28;20663;-82
2021/06/19 10:19:28;;;;;;;1.40;0.80;;;34.40;64.00;;;;;;5057898;28;20392;-82
2021/06/19 10:22:04;;;;;;;1.42;0.80;;;34.50;62.40;;;;;;5050366;28;20297;-81
2021/06/19 10:24:37;;;;;;;1.40;0.80;;;34.60;62.30;;;;;;5056264;28;20318;-83
2021/06/19 10:27:05;;;;;;;1.40;0.80;;;34.50;61.40;;;;;;5042808;28;20701;-83
2021/06/19 10:29:34;;;;;;;1.48;0.80;;;34.60;61.20;;;;;;5049225;28;20680;-83
2021/06/19 10:32:01;;;;;;;1.48;0.80;;;34.70;60.90;;;;;;5043192;28;20239;-82
2021/06/19 10:34:31;;;;;;;1.42;0.80;;;34.90;61.00;;;;;;5050814;28;20207;-82
2021/06/19 10:37:02;;;;;;;1.42;0.80;;;35.00;59.60;;;;;;5068741;22;20875;-83
2021/06/19 10:39:40;;;;;;;1.40;0.80;;;35.10;60.10;;;;;;5059636;28;20648;-84
2021/06/19 10:42:24;;;;;;;1.48;0.80;;;35.10;60.80;;;;;;5072572;22;20230;-81
2021/06/19 10:44:58;;;;;;;1.40;0.80;;;35.20;60.00;;;;;;5017615;22;20617;-78
2021/06/19 10:47:27;;;;;;;1.48;1.05;;;34.80;60.10;;;;;;4997872;28;20232;-81
2021/06/19 10:49:57;;;;;;;1.45;0.80;;;34.40;61.20;;;;;;5018376;22;20232;-82
2021/06/19 10:52:31;;;;;;;1.40;0.80;;;34.40;62.60;;;;;;5049295;28;20231;-81
2021/06/19 10:55:29;;;;;;;1.40;0.80;;;34.70;61.90;;;;;;5055541;28;20229;-83
2021/06/19 10:58:04;;;;;;;1.40;0.80;;;34.90;60.50;;;;;;5050802;22;20232;-83
2021/06/19 11:00:47;;;;;;;1.42;0.80;;;35.20;60.30;;;;;;5051201;22;20239;-84
2021/06/19 11:03:17;;;;;;;1.40;0.80;;;35.30;60.40;;;;;;5023701;28;20330;-84
2021/06/19 11:06:01;;;;;;;1.40;0.80;;;35.50;58.90;;;;;;5037804;28;20760;-83
2021/06/19 11:08:59;;;;;;;1.40;0.80;;;35.50;59.20;;;;;;5028667;28;20749;-83
2021/06/19 11:11:50;;;;;;;1.40;0.80;;;35.50;59.90;;;;;;5022507;28;20227;-84
2021/06/19 11:14:52;;;;;;;1.40;0.80;;;35.60;61.00;;;;;;5036761;28;20204;-85
2021/06/19 11:17:46;;;;;;;1.40;0.80;;;35.70;60.60;;;;;;5076862;22;20258;-85
2021/06/19 11:20:31;;;;;;;1.40;0.80;;;35.80;58.50;;;;;;5052338;28;20796;-84
2021/06/19 11:23:07;;;;;;;1.40;0.80;;;35.60;60.80;;;;;;5041180;28;20467;-83
2021/06/19 11:25:44;;;;;;;1.40;0.80;;;35.60;60.10;;;;;;5055806;28;20302;-85
2021/06/19 11:31:41;;;;;;;1.40;0.80;;;35.80;59.70;;;;;;5031423;28;20234;-83
2021/06/19 11:34:08;;;;;;;1.40;0.80;;;35.90;57.70;;;;;;5065212;22;20230;-82
2021/06/19 11:36:39;;;;;;;1.40;0.80;;;36.00;59.00;;;;;;5064600;22;20294;-84
2021/06/19 11:39:15;;;;;;;1.40;0.80;;;36.10;59.30;;;;;;5023525;28;20239;-85
2021/06/19 11:41:50;;;;;;;1.40;0.80;;;36.30;58.60;;;;;;5004098;28;20239;-86
2021/06/19 11:44:32;;;;;;;1.40;0.80;;;36.20;59.50;;;;;;5018919;28;20224;-85
2021/06/19 11:47:04;;;;;;;1.40;0.80;;;36.00;58.50;;;;;;5034170;22;20235;-83
2021/06/19 11:49:34;;;;;;;1.40;0.80;;;35.60;59.60;;;;;;5045445;28;20251;-83
2021/06/19 11:52:06;;;;;;;1.40;0.80;;;35.40;60.10;;;;;;5038913;28;20227;-83
2021/06/19 11:54:45;;;;;;;1.40;0.80;;;35.20;61.00;;;;;;5048494;28;20196;-84
2021/06/19 11:57:24;;;;;;;1.40;0.85;;;35.10;60.50;;;;;;5038828;28;20228;-82
2021/06/19 12:00:08;;;;;;;1.40;0.80;;;35.10;61.20;;;;;;5042519;28;20445;-84
2021/06/19 12:02:34;;;;;;;1.40;0.80;;;35.40;60.40;;;;;;5035199;28;20235;-82
2021/06/19 12:05:15;;;;;;;1.40;0.90;;;35.50;59.40;;;;;;5050032;28;20241;-83
2021/06/19 12:07:42;;;;;;;1.40;0.90;;;35.40;60.50;;;;;;5036261;28;20238;-85
2021/06/19 12:10:27;;;;;;;1.40;0.80;;;35.40;60.20;;;;;;5045129;28;20231;-84
2021/06/19 12:13:03;;;;;;;1.40;0.80;;;35.30;60.40;;;;;;5034172;28;20507;-83
2021/06/19 12:15:34;;;;;;;1.40;0.80;;;35.30;60.00;;;;;;5046074;28;20207;-85
2021/06/19 12:18:06;;;;;;;1.40;0.80;;;35.50;60.20;;;;;;5034191;28;20337;-83
2021/06/19 12:20:32;;;;;;;1.40;0.80;;;35.70;60.00;;;;;;5049462;28;20215;-83
2021/06/19 12:22:59;;;;;;;1.40;0.80;;;35.80;59.80;;;;;;5037463;28;20341;-80
2021/06/19 12:25:35;;;;;;;1.40;0.80;;;35.80;58.70;;;;;;5048858;28;20229;-84
2021/06/19 12:28:07;;;;;;;1.40;0.80;;;35.90;59.90;;;;;;5036905;28;20305;-84
2021/06/19 12:30:36;;;;;;;1.40;0.80;;;36.10;60.10;;;;;;5042238;28;20581;-85
2021/06/19 12:33:18;;;;;;;1.40;0.80;;;36.40;59.10;;;;;;5030650;28;20255;-84
2021/06/19 12:35:45;;;;;;;1.40;0.80;;;36.50;57.60;;;;;;5050828;28;20217;-85
2021/06/19 12:38:21;;;;;;;1.40;0.80;;;36.30;58.90;;;;;;5020530;28;20252;-83
2021/06/19 12:40:49;;;;;;;1.40;0.80;;;36.20;58.50;;;;;;5047155;28;20210;-84
2021/06/19 12:43:50;;;;;;;1.40;0.80;;;36.00;58.20;;;;;;5050412;28;20705;-85
2021/06/19 12:46:27;;;;;;;1.40;0.80;;;36.00;60.20;;;;;;4997978;28;20233;-84
2021/06/19 12:49:07;;;;;;;1.40;0.80;;;36.00;59.50;;;;;;5046705;28;20253;-83
2021/06/19 12:51:44;;;;;;;1.40;0.80;;;36.10;59.40;;;;;;5040732;28;20249;-84
2021/06/19 12:54:24;;;;;;;1.40;0.80;;;36.20;58.40;;;;;;5047733;28;20283;-83
2021/06/19 12:56:54;;;;;;;1.40;0.80;;;36.40;58.70;;;;;;5040191;28;20230;-84
2021/06/19 12:59:51;;;;;;;1.40;0.80;;;36.50;58.50;;;;;;5052077;28;20309;-86
2021/06/19 13:02:18;;;;;;;1.40;0.80;;;36.60;58.60;;;;;;5033922;28;20255;-83
2021/06/19 13:05:03;;;;;;;1.38;0.80;;;36.60;58.40;;;;;;5048310;28;20277;-84
2021/06/19 13:07:40;;;;;;;1.40;0.80;;;36.70;59.00;;;;;;5033414;28;20305;-84
2021/06/19 13:10:08;;;;;;;1.38;0.80;;;36.60;57.90;;;;;;5050298;28;20646;-84
2021/06/19 13:12:52;;;;;;;1.40;0.80;;;36.30;58.00;;;;;;5033758;28;20242;-84
2021/06/19 13:15:22;;;;;;;1.40;0.80;;;36.20;58.60;;;;;;5047079;28;20267;-84